createdAt,value
2018-12-31T00:02:03.706Z,6.50
2018-12-31T00:04:33.574Z,8.27
2018-12-31T00:07:03.294Z,6.17
2018-12-31T00:09:33.014Z,5.60
2018-12-31T00:12:02.805Z,7.77
2018-12-31T00:14:32.697Z,6.17
2018-12-31T00:17:04.428Z,4.97
2018-12-31T00:19:35.571Z,5.23
2018-12-31T00:22:05.389Z,5.57
2018-12-31T00:24:35.140Z,6.20
2018-12-31T00:27:05.288Z,5.23
2018-12-31T00:29:35.576Z,4.80
2018-12-31T00:32:05.365Z,6.83
2018-12-31T00:34:39.386Z,7.07
2018-12-31T00:37:09.195Z,6.33
2018-12-31T00:39:41.767Z,5.50
2018-12-31T00:42:21.423Z,6.87
2018-12-31T00:44:46.874Z,4.70
2018-12-31T00:47:22.897Z,4.70
2018-12-31T00:49:49.883Z,4.57
2018-12-31T00:52:19.479Z,4.67
2018-12-31T00:54:58.611Z,6.60
2018-12-31T00:57:28.290Z,5.17
2018-12-31T00:59:57.986Z,4.63
2018-12-31T01:02:27.658Z,6.97
2018-12-31T01:04:57.293Z,3.97
2018-12-31T01:07:26.956Z,5.23
2018-12-31T01:09:56.586Z,7.67
2018-12-31T01:12:26.150Z,7.50
2018-12-31T01:14:55.766Z,5.33
2018-12-31T01:17:25.361Z,4.73
2018-12-31T01:19:54.998Z,5.33
2018-12-31T01:22:24.671Z,4.33
2018-12-31T01:24:54.297Z,5.07
2018-12-31T01:27:23.907Z,3.27
2018-12-31T01:29:54.641Z,4.40
2018-12-31T01:32:28.174Z,4.63
2018-12-31T01:34:58.167Z,3.40
2018-12-31T01:37:28.046Z,3.87
2018-12-31T01:39:57.896Z,4.73
2018-12-31T01:42:27.581Z,6.10
2018-12-31T01:44:57.250Z,4.63
2018-12-31T01:47:26.967Z,3.93
2018-12-31T01:49:56.658Z,4.37
2018-12-31T01:52:28.040Z,4.23
2018-12-31T01:54:57.707Z,6.37
2018-12-31T01:57:27.404Z,5.67
2018-12-31T01:59:57.053Z,6.70
2018-12-31T02:02:26.718Z,4.03
2018-12-31T02:04:56.422Z,6.37
2018-12-31T02:07:25.959Z,3.70
2018-12-31T02:09:55.564Z,6.73
2018-12-31T02:12:25.154Z,5.40
2018-12-31T02:14:55.827Z,5.70
2018-12-31T02:17:25.420Z,5.40
2018-12-31T02:19:55.134Z,6.57
2018-12-31T02:22:24.796Z,5.20
2018-12-31T02:24:54.499Z,4.30
2018-12-31T02:27:24.153Z,9.43
2018-12-31T02:29:53.693Z,6.80
2018-12-31T02:32:23.362Z,5.03
2018-12-31T02:34:53.073Z,6.40
2018-12-31T02:37:23.899Z,8.50
2018-12-31T02:39:53.470Z,7.00
2018-12-31T02:42:23.157Z,5.47
2018-12-31T02:44:52.810Z,6.83
2018-12-31T02:47:22.498Z,5.33
2018-12-31T02:49:52.055Z,5.07
2018-12-31T02:52:21.629Z,6.57
2018-12-31T02:54:51.257Z,5.07
2018-12-31T02:57:20.878Z,7.23
2018-12-31T02:59:50.466Z,9.13
2018-12-31T03:02:20.136Z,6.47
2018-12-31T03:04:49.722Z,7.33
2018-12-31T03:07:19.361Z,5.00
2018-12-31T03:09:48.963Z,9.93
2018-12-31T03:12:18.669Z,4.77
2018-12-31T03:14:48.198Z,5.97
2018-12-31T03:17:17.822Z,6.40
2018-12-31T03:19:47.433Z,6.67
2018-12-31T03:22:16.999Z,5.27
2018-12-31T03:24:46.682Z,3.70
2018-12-31T03:27:16.278Z,5.63
2018-12-31T03:29:45.915Z,5.33
2018-12-31T03:32:15.525Z,6.63
2018-12-31T03:34:45.090Z,4.97
2018-12-31T03:37:14.685Z,3.73
2018-12-31T03:39:44.290Z,3.67
2018-12-31T03:42:13.922Z,4.23
2018-12-31T03:44:43.648Z,5.10
2018-12-31T03:47:13.304Z,6.13
2018-12-31T03:49:42.838Z,4.70
2018-12-31T03:52:12.417Z,4.13
2018-12-31T03:54:42.046Z,5.50
2018-12-31T03:57:11.730Z,5.77
2018-12-31T03:59:41.348Z,4.90
2018-12-31T04:02:10.949Z,6.83
2018-12-31T04:04:40.560Z,4.67
2018-12-31T04:07:10.170Z,6.87
2018-12-31T04:09:39.862Z,5.87
2018-12-31T04:12:09.429Z,8.37
2018-12-31T04:14:39.054Z,8.60
2018-12-31T04:17:08.609Z,11.73
2018-12-31T04:19:38.138Z,6.60
2018-12-31T04:22:07.694Z,8.93
2018-12-31T04:24:37.335Z,7.73
2018-12-31T04:27:06.988Z,8.40
2018-12-31T04:29:36.595Z,7.07
2018-12-31T04:32:06.842Z,8.57
2018-12-31T04:34:36.461Z,9.97
2018-12-31T04:37:06.026Z,7.17
2018-12-31T04:39:35.732Z,9.77
2018-12-31T04:42:05.364Z,9.00
2018-12-31T04:44:34.951Z,10.23
2018-12-31T04:47:04.591Z,9.30
2018-12-31T04:49:34.129Z,8.67
2018-12-31T04:52:03.662Z,8.57
2018-12-31T04:54:33.319Z,8.30
2018-12-31T04:57:02.943Z,8.43
2018-12-31T04:59:32.563Z,10.20
2018-12-31T05:02:02.213Z,7.53
2018-12-31T05:04:31.815Z,8.53
2018-12-31T05:07:01.396Z,11.10
2018-12-31T05:09:31.028Z,9.17
2018-12-31T05:12:00.574Z,5.10
2018-12-31T05:14:30.138Z,10.90
2018-12-31T05:17:00.016Z,13.53
2018-12-31T05:19:29.583Z,11.50
2018-12-31T05:21:59.147Z,6.07
2018-12-31T05:24:28.813Z,9.80
2018-12-31T05:26:58.413Z,11.60
2018-12-31T05:29:28.015Z,11.67
2018-12-31T05:31:57.583Z,12.50
2018-12-31T05:34:27.194Z,8.47
2018-12-31T05:36:56.759Z,12.97
2018-12-31T05:39:26.406Z,15.77
2018-12-31T05:41:57.072Z,19.07
2018-12-31T05:44:26.621Z,15.40
2018-12-31T05:46:56.226Z,7.80
2018-12-31T05:49:25.791Z,14.00
2018-12-31T05:51:55.373Z,10.57
2018-12-31T05:54:25.377Z,19.13
2018-12-31T05:56:57.181Z,10.20
2018-12-31T05:59:26.778Z,10.20
2018-12-31T06:01:56.399Z,8.03
2018-12-31T06:04:26.012Z,8.97
2018-12-31T06:06:55.611Z,13.77
2018-12-31T06:09:25.251Z,10.73
2018-12-31T06:11:54.879Z,14.07
2018-12-31T06:14:24.478Z,11.07
2018-12-31T06:16:55.110Z,9.73
2018-12-31T06:19:24.766Z,23.97
2018-12-31T06:21:54.290Z,10.23
2018-12-31T06:24:25.018Z,7.97
2018-12-31T06:26:54.627Z,10.70
2018-12-31T06:29:25.658Z,11.03
2018-12-31T06:31:55.262Z,14.90
2018-12-31T06:34:26.872Z,12.63
2018-12-31T06:36:56.478Z,17.87
2018-12-31T06:39:26.106Z,25.90
2018-12-31T06:41:55.736Z,20.27
2018-12-31T06:44:25.326Z,15.13
2018-12-31T06:46:55.924Z,15.57
2018-12-31T06:49:25.531Z,17.87
2018-12-31T06:51:55.148Z,12.53
2018-12-31T06:54:24.642Z,39.27
2018-12-31T06:56:54.186Z,18.70
2018-12-31T06:59:23.789Z,17.53
2018-12-31T07:01:53.522Z,30.83
2018-12-31T07:04:23.136Z,40.50
2018-12-31T07:06:52.730Z,24.83
2018-12-31T07:09:22.403Z,17.87
2018-12-31T07:11:52.003Z,12.63
2018-12-31T07:14:21.598Z,15.33
2018-12-31T07:16:51.250Z,16.33
2018-12-31T07:19:20.831Z,10.97
2018-12-31T07:21:50.429Z,13.17
2018-12-31T07:24:20.002Z,16.17
2018-12-31T07:26:49.588Z,38.13
2018-12-31T07:29:19.202Z,14.47
2018-12-31T07:31:48.850Z,15.63
2018-12-31T07:34:18.462Z,13.93
2018-12-31T07:36:49.484Z,12.63
2018-12-31T07:39:19.101Z,13.03
2018-12-31T07:41:48.694Z,13.40
2018-12-31T07:44:18.296Z,9.60
2018-12-31T07:46:47.922Z,10.37
2018-12-31T07:49:17.528Z,8.93
2018-12-31T07:51:47.251Z,8.70
2018-12-31T07:54:24.011Z,7.97
2018-12-31T07:56:56.247Z,8.33
2018-12-31T07:59:27.779Z,6.07
2018-12-31T08:01:57.392Z,6.63
2018-12-31T08:04:31.707Z,9.17
2018-12-31T08:07:08.861Z,12.77
2018-12-31T08:09:48.697Z,12.73
2018-12-31T08:12:34.843Z,9.70
2018-12-31T08:15:05.716Z,12.40
2018-12-31T08:17:35.725Z,13.97
2018-12-31T08:20:08.462Z,11.37
2018-12-31T08:22:39.443Z,15.77
2018-12-31T08:25:09.094Z,11.20
2018-12-31T08:27:41.490Z,11.60
2018-12-31T08:30:11.066Z,11.33
2018-12-31T08:32:40.679Z,11.30
2018-12-31T08:35:10.335Z,14.53
2018-12-31T08:37:39.932Z,13.23
2018-12-31T08:40:09.523Z,13.37
2018-12-31T08:42:39.203Z,10.60
2018-12-31T08:45:08.791Z,14.97
2018-12-31T08:47:38.334Z,8.63
2018-12-31T08:50:08.395Z,11.80
2018-12-31T08:52:38.035Z,13.33
2018-12-31T08:55:07.582Z,14.60
2018-12-31T08:57:37.177Z,14.40
2018-12-31T09:00:07.109Z,12.90
2018-12-31T09:02:36.581Z,16.57
2018-12-31T09:05:06.554Z,12.90
2018-12-31T09:07:36.158Z,15.20
2018-12-31T09:10:05.950Z,12.50
2018-12-31T09:12:35.546Z,11.03
2018-12-31T09:15:05.521Z,15.13
2018-12-31T09:17:35.113Z,12.33
2018-12-31T09:20:05.050Z,12.33
2018-12-31T09:22:34.793Z,14.97
2018-12-31T09:25:04.363Z,11.43
2018-12-31T09:27:34.207Z,11.83
2018-12-31T09:30:03.999Z,15.33
2018-12-31T09:32:33.655Z,9.43
2018-12-31T09:35:03.275Z,13.00
2018-12-31T09:37:32.878Z,11.67
2018-12-31T09:40:02.775Z,12.60
2018-12-31T09:42:32.467Z,11.00
2018-12-31T09:45:03.474Z,14.33
2018-12-31T09:47:34.719Z,13.83
2018-12-31T09:50:04.759Z,10.80
2018-12-31T09:52:36.003Z,14.03
2018-12-31T09:55:05.863Z,15.33
2018-12-31T09:57:35.698Z,8.23
2018-12-31T10:00:05.540Z,11.33
2018-12-31T10:02:36.413Z,12.13
2018-12-31T10:05:06.129Z,10.90
2018-12-31T10:07:35.913Z,9.63
2018-12-31T10:10:05.627Z,12.30
2018-12-31T10:12:35.664Z,9.67
2018-12-31T10:15:05.756Z,13.80
2018-12-31T10:17:35.332Z,12.33
2018-12-31T10:20:05.352Z,9.43
2018-12-31T10:22:34.980Z,10.43
2018-12-31T10:25:04.551Z,9.17
2018-12-31T10:27:34.227Z,10.10
2018-12-31T10:30:04.004Z,12.13
2018-12-31T10:32:33.655Z,12.17
2018-12-31T10:35:03.292Z,11.27
2018-12-31T10:37:32.863Z,12.93
2018-12-31T10:40:02.496Z,12.13
2018-12-31T10:42:32.179Z,9.80
2018-12-31T10:45:03.235Z,11.07
2018-12-31T10:47:32.818Z,10.00
2018-12-31T10:50:02.448Z,10.80
2018-12-31T10:52:32.040Z,11.87
2018-12-31T10:55:01.647Z,10.43
2018-12-31T10:57:31.356Z,10.43
2018-12-31T11:00:00.981Z,11.47
2018-12-31T11:02:30.757Z,11.63
2018-12-31T11:05:00.392Z,9.47
2018-12-31T11:07:30.001Z,11.30
2018-12-31T11:09:59.611Z,10.10
2018-12-31T11:12:29.266Z,7.37
2018-12-31T11:14:58.847Z,10.60
2018-12-31T11:17:28.446Z,8.77
2018-12-31T11:19:58.075Z,9.83
2018-12-31T11:22:27.687Z,11.53
2018-12-31T11:24:57.294Z,12.00
2018-12-31T11:27:26.935Z,11.27
2018-12-31T11:29:56.564Z,10.20
2018-12-31T11:32:26.121Z,12.40
2018-12-31T11:34:55.849Z,12.90
2018-12-31T11:37:25.481Z,10.43
2018-12-31T11:39:55.074Z,15.57
2018-12-31T11:42:24.725Z,11.77
2018-12-31T11:44:54.303Z,11.07
2018-12-31T11:47:23.923Z,14.10
2018-12-31T11:49:53.643Z,11.07
2018-12-31T11:52:23.150Z,8.43
2018-12-31T11:54:52.724Z,7.03
2018-12-31T11:57:22.465Z,9.33
2018-12-31T11:59:51.861Z,14.03
2018-12-31T12:02:23.644Z,12.00
2018-12-31T12:04:52.478Z,10.33
2018-12-31T12:07:21.945Z,10.27
2018-12-31T12:09:51.448Z,12.53
2018-12-31T12:12:21.358Z,8.53
2018-12-31T12:14:50.822Z,8.67
2018-12-31T12:17:20.313Z,8.20
2018-12-31T12:19:49.961Z,8.27
2018-12-31T12:22:19.430Z,8.73
2018-12-31T12:24:49.305Z,7.57
2018-12-31T12:27:18.808Z,10.90
2018-12-31T12:29:48.292Z,10.23
2018-12-31T12:32:17.765Z,11.90
2018-12-31T12:34:48.196Z,10.70
2018-12-31T12:37:17.681Z,11.27
2018-12-31T12:39:47.157Z,12.00
2018-12-31T12:42:16.645Z,10.30
2018-12-31T12:44:46.125Z,12.77
2018-12-31T12:47:15.636Z,12.57
2018-12-31T12:49:45.243Z,11.87
2018-12-31T12:52:14.651Z,12.47
2018-12-31T12:54:44.140Z,14.33
2018-12-31T12:57:13.662Z,11.43
2018-12-31T12:59:43.538Z,11.40
2018-12-31T13:02:12.992Z,10.93
2018-12-31T13:04:42.739Z,9.87
2018-12-31T13:07:12.210Z,11.07
2018-12-31T13:09:41.672Z,8.70
2018-12-31T13:12:11.481Z,13.00
2018-12-31T13:14:40.965Z,10.63
2018-12-31T13:17:10.452Z,8.90
2018-12-31T13:19:39.941Z,10.77
2018-12-31T13:22:09.542Z,12.27
2018-12-31T13:24:39.145Z,18.70
2018-12-31T13:27:08.703Z,8.73
2018-12-31T13:29:38.303Z,10.13
2018-12-31T13:32:07.910Z,9.67
2018-12-31T13:34:37.486Z,8.43
2018-12-31T13:37:07.121Z,7.50
2018-12-31T13:39:36.692Z,9.30
2018-12-31T13:42:06.343Z,11.57
2018-12-31T13:44:35.923Z,10.03
2018-12-31T13:47:05.507Z,11.03
2018-12-31T13:49:35.174Z,11.07
2018-12-31T13:52:04.790Z,11.93
2018-12-31T13:54:34.666Z,10.57
2018-12-31T13:57:04.478Z,12.40
2018-12-31T13:59:34.199Z,9.90
2018-12-31T14:02:03.827Z,8.93
2018-12-31T14:04:33.435Z,12.53
2018-12-31T14:07:03.082Z,9.13
2018-12-31T14:09:32.626Z,8.13
2018-12-31T14:12:02.163Z,7.80
2018-12-31T14:14:31.811Z,10.33
2018-12-31T14:17:01.419Z,8.43
2018-12-31T14:19:31.062Z,10.47
2018-12-31T14:22:00.714Z,10.00
2018-12-31T14:24:30.228Z,8.67
2018-12-31T14:27:00.615Z,11.33
2018-12-31T14:29:30.378Z,8.63
2018-12-31T14:31:59.975Z,9.20
2018-12-31T14:34:29.939Z,11.13
2018-12-31T14:36:59.573Z,9.73
2018-12-31T14:39:29.794Z,12.53
2018-12-31T14:41:59.471Z,10.23
2018-12-31T14:44:29.007Z,10.23
2018-12-31T14:46:58.663Z,8.93
2018-12-31T14:49:28.349Z,10.90
2018-12-31T14:51:57.971Z,14.40
2018-12-31T14:54:27.575Z,12.70
2018-12-31T14:56:57.233Z,12.67
2018-12-31T14:59:26.812Z,21.70
2018-12-31T15:01:56.442Z,12.33
2018-12-31T15:04:26.060Z,14.63
2018-12-31T15:06:55.691Z,12.17
2018-12-31T15:09:25.266Z,13.57
2018-12-31T15:11:54.931Z,11.47
2018-12-31T15:14:24.605Z,17.20
2018-12-31T15:16:54.231Z,13.93
2018-12-31T15:19:23.905Z,12.07
2018-12-31T15:21:53.845Z,13.43
2018-12-31T15:24:23.475Z,9.00
2018-12-31T15:26:53.083Z,11.10
2018-12-31T15:29:22.699Z,11.07
2018-12-31T15:31:52.599Z,8.83
2018-12-31T15:34:22.270Z,9.70
2018-12-31T15:36:51.818Z,8.80
2018-12-31T15:39:21.310Z,7.70
2018-12-31T15:41:50.909Z,6.97
2018-12-31T15:44:20.498Z,7.53
2018-12-31T15:46:50.106Z,10.47
2018-12-31T15:49:19.740Z,8.47
2018-12-31T15:51:49.393Z,8.53
2018-12-31T15:54:19.030Z,9.87
2018-12-31T15:56:48.691Z,8.33
2018-12-31T15:59:18.222Z,9.33
2018-12-31T16:01:47.747Z,9.73
2018-12-31T16:04:20.271Z,8.90
2018-12-31T16:06:49.972Z,8.63
2018-12-31T16:09:20.008Z,11.30
2018-12-31T16:11:49.683Z,9.20
2018-12-31T16:14:19.279Z,14.13
2018-12-31T16:16:48.959Z,11.03
2018-12-31T16:19:18.650Z,16.93
2018-12-31T16:21:51.660Z,15.73
2018-12-31T16:24:21.315Z,15.37
2018-12-31T16:26:50.834Z,18.47
2018-12-31T16:29:22.945Z,24.50
2018-12-31T16:31:52.559Z,20.87
2018-12-31T16:34:22.119Z,29.30
2018-12-31T16:36:51.690Z,31.40
2018-12-31T16:39:21.323Z,28.17
2018-12-31T16:41:50.883Z,42.30
2018-12-31T16:44:20.928Z,33.27
2018-12-31T16:46:50.555Z,26.83
2018-12-31T16:49:20.171Z,27.90
2018-12-31T16:51:49.746Z,33.03
2018-12-31T16:54:19.386Z,32.50
2018-12-31T16:56:49.307Z,23.30
2018-12-31T16:59:18.953Z,25.47
2018-12-31T17:01:48.879Z,26.63
2018-12-31T17:04:18.485Z,25.83
2018-12-31T17:06:48.100Z,24.40
2018-12-31T17:09:18.163Z,23.67
2018-12-31T17:11:47.835Z,26.40
2018-12-31T17:14:17.431Z,24.40
2018-12-31T17:16:47.158Z,31.73
2018-12-31T17:19:16.784Z,24.23
2018-12-31T17:21:48.850Z,39.53
2018-12-31T17:24:18.507Z,73.33
2018-12-31T17:26:48.078Z,82.43
2018-12-31T17:29:17.620Z,96.83
2018-12-31T17:31:47.227Z,106.70
2018-12-31T17:34:16.927Z,70.77
2018-12-31T17:36:46.509Z,73.00
2018-12-31T17:39:16.163Z,76.97
2018-12-31T17:41:45.763Z,91.13
2018-12-31T17:44:15.386Z,99.73
2018-12-31T17:46:45.857Z,113.13
2018-12-31T17:49:15.514Z,98.20
2018-12-31T17:51:45.098Z,83.70
2018-12-31T17:54:19.960Z,81.97
2018-12-31T17:56:50.130Z,79.47
2018-12-31T17:59:19.831Z,69.87
2018-12-31T18:01:49.418Z,83.50
2018-12-31T18:04:18.983Z,125.30
2018-12-31T18:06:48.613Z,92.80
2018-12-31T18:09:18.439Z,96.80
2018-12-31T18:11:48.038Z,86.43
2018-12-31T18:14:17.665Z,89.67
2018-12-31T18:16:48.840Z,95.37
2018-12-31T18:19:18.458Z,93.33
2018-12-31T18:21:48.071Z,98.13
2018-12-31T18:24:17.723Z,97.70
2018-12-31T18:26:50.277Z,98.77
2018-12-31T18:29:19.889Z,93.70
2018-12-31T18:31:49.906Z,97.27
2018-12-31T18:34:19.514Z,102.87
2018-12-31T18:36:49.118Z,129.20
2018-12-31T18:39:18.922Z,122.40
2018-12-31T18:41:48.559Z,108.00
2018-12-31T18:44:18.797Z,106.87
2018-12-31T18:46:48.406Z,96.27
2018-12-31T18:49:18.018Z,98.03
2018-12-31T18:51:49.003Z,110.73
2018-12-31T18:54:18.714Z,111.77
2018-12-31T18:56:48.265Z,138.00
2018-12-31T18:59:17.807Z,125.77
2018-12-31T19:01:47.453Z,119.73
2018-12-31T19:04:17.059Z,126.47
2018-12-31T19:06:46.682Z,121.77
2018-12-31T19:09:16.338Z,113.90
2018-12-31T19:11:45.986Z,126.53
2018-12-31T19:14:15.642Z,129.47
2018-12-31T19:16:45.242Z,124.63
2018-12-31T19:19:17.473Z,117.13
2018-12-31T19:21:47.498Z,114.63
2018-12-31T19:24:17.243Z,116.87
2018-12-31T19:26:46.849Z,109.60
2018-12-31T19:29:16.511Z,134.70
2018-12-31T19:31:46.686Z,115.90
2018-12-31T19:34:16.248Z,96.53
2018-12-31T19:36:45.834Z,98.90
2018-12-31T19:39:15.439Z,83.73
2018-12-31T19:41:45.011Z,84.10
2018-12-31T19:44:15.223Z,120.97
2018-12-31T19:46:44.783Z,82.70
2018-12-31T19:49:14.361Z,83.23
2018-12-31T19:51:44.213Z,80.80
2018-12-31T19:54:14.986Z,83.10
2018-12-31T19:56:47.391Z,74.53
2018-12-31T19:59:17.042Z,73.47
2018-12-31T20:01:46.914Z,84.13
2018-12-31T20:04:19.069Z,81.77
2018-12-31T20:07:24.671Z,77.47
2018-12-31T20:09:57.788Z,68.47
2018-12-31T20:12:27.472Z,64.93
2018-12-31T20:14:59.605Z,73.37
2018-12-31T20:17:29.249Z,76.77
2018-12-31T20:20:00.191Z,73.40
2018-12-31T20:22:30.392Z,96.87
2018-12-31T20:25:00.371Z,102.77
2018-12-31T20:27:30.044Z,85.33
2018-12-31T20:30:01.264Z,78.03
2018-12-31T20:32:30.949Z,101.43
2018-12-31T20:35:04.977Z,101.07
2018-12-31T20:37:34.257Z,95.43
2018-12-31T20:40:05.314Z,83.60
2018-12-31T20:42:34.882Z,83.50
2018-12-31T20:45:05.100Z,75.23
2018-12-31T20:47:34.721Z,75.93
2018-12-31T20:50:06.906Z,72.70
2018-12-31T20:52:51.104Z,78.27
2018-12-31T20:55:20.829Z,75.20
2018-12-31T20:57:50.524Z,77.17
2018-12-31T21:00:20.573Z,75.40
2018-12-31T21:02:50.196Z,72.93
2018-12-31T21:05:19.805Z,70.57
2018-12-31T21:07:49.613Z,76.73
2018-12-31T21:10:19.354Z,68.13
2018-12-31T21:12:49.307Z,66.53
2018-12-31T21:15:18.919Z,71.50
2018-12-31T21:17:48.550Z,66.83
2018-12-31T21:20:21.610Z,66.53
2018-12-31T21:22:53.460Z,67.00
2018-12-31T21:25:23.085Z,68.17
2018-12-31T21:27:52.734Z,69.40
2018-12-31T21:30:22.327Z,63.20
2018-12-31T21:32:51.946Z,67.23
2018-12-31T21:35:21.584Z,69.63
2018-12-31T21:37:58.281Z,72.53
2018-12-31T21:40:23.777Z,70.73
2018-12-31T21:42:53.454Z,70.70
2018-12-31T21:45:23.122Z,65.80
2018-12-31T21:47:52.738Z,73.17
2018-12-31T21:50:22.425Z,74.20
2018-12-31T21:52:52.027Z,70.37
2018-12-31T21:55:21.663Z,69.73
2018-12-31T21:57:51.351Z,75.17
2018-12-31T22:00:20.987Z,71.60
2018-12-31T22:02:56.945Z,71.90
2018-12-31T22:05:21.910Z,72.70
2018-12-31T22:07:51.559Z,75.20
2018-12-31T22:10:21.223Z,72.87
2018-12-31T22:12:51.418Z,80.97
2018-12-31T22:15:27.400Z,74.73
2018-12-31T22:17:57.093Z,87.17
2018-12-31T22:20:26.693Z,75.90
2018-12-31T22:22:56.281Z,72.20
2018-12-31T22:25:25.887Z,66.57
2018-12-31T22:27:55.426Z,73.37
2018-12-31T22:30:25.055Z,70.63
2018-12-31T22:32:54.734Z,69.30
2018-12-31T22:35:24.234Z,69.07
2018-12-31T22:37:53.885Z,77.97
2018-12-31T22:40:23.867Z,69.50
2018-12-31T22:42:53.442Z,70.60
2018-12-31T22:45:23.047Z,69.10
2018-12-31T22:47:52.655Z,66.03
2018-12-31T22:50:23.825Z,70.70
2018-12-31T22:52:53.460Z,64.80
2018-12-31T22:55:23.063Z,69.67
2018-12-31T22:57:52.635Z,67.63
2018-12-31T23:00:29.134Z,69.63
2018-12-31T23:02:58.681Z,70.87
2018-12-31T23:05:29.327Z,76.90
2018-12-31T23:07:59.044Z,78.90
2018-12-31T23:10:28.652Z,119.57
2018-12-31T23:12:58.253Z,126.93
2018-12-31T23:15:28.523Z,119.50
2018-12-31T23:17:58.174Z,114.73
2018-12-31T23:20:27.770Z,101.47
2018-12-31T23:22:57.688Z,112.57
2018-12-31T23:25:27.332Z,92.87
2018-12-31T23:27:56.903Z,77.63
2018-12-31T23:30:26.558Z,80.90
2018-12-31T23:32:56.201Z,86.83
2018-12-31T23:35:25.816Z,81.37
2018-12-31T23:37:55.459Z,81.40
2018-12-31T23:40:25.056Z,83.30
2018-12-31T23:43:06.289Z,84.43
2018-12-31T23:45:32.366Z,87.13
2018-12-31T23:48:01.939Z,89.33
2018-12-31T23:50:33.187Z,96.67
2018-12-31T23:53:02.896Z,82.17
2018-12-31T23:55:32.711Z,84.73
2018-12-31T23:58:02.995Z,81.27
